PKWA TAF

83.1 °F / 28.4 °C
ENE at 12 MPH
84%
78.1°F / 25.6 °C
29.83" (1010 mb)
10 mile(s)
partly cloudy
2020.08.04 1040 UTC

PKWA TAF

2020/08/04 06:26
TAF PKWA 040520Z 0406/0506 07008KT P6SM VCSH SCT017